Nearby METAR Reports

 

KORH - Worcester, Massachusetts, USA
Distance from station: NW 4mi, 7km
Updated: Tue, 21-May-2019 6:54am EDT
Clear
Clear
 Wind from WNW
Wind: WNW 15 mph , 24 km/h
Temperature: 50°F , 10°C
Wind Chill: 45°F , 7°C
Dew Point: 39°F , 4°C
Humidity: 67%
Barometer: 29.78 inHg , 1008.5 hPa
Clouds: Clear
Visibility: 10 miles , 16 km
2019/05/21 10:54 KORH 211054Z 29013KT 10SM CLR 10/04 A2978 RMK AO2 SLP083 T01000039
KBOS - Boston, Massachusetts, USA
Distance from station: ENE 42mi, 68km
Updated: Tue, 21-May-2019 6:54am EDT
Few Clouds
Few Clouds
 Wind from WNW
Wind: WNW 21 mph , 33 km/h, Gust: 30 mph , 48 km/h
Temperature: 61°F , 16°C
Dew Point: 41°F , 5°C
Humidity: 48%
Barometer: 29.73 inHg , 1006.8 hPa
Clouds: Few Clouds
Visibility: 10 miles , 16 km
Cloud details: Few Clouds 6500 ft
Few Clouds 25000 ft
2019/05/21 10:54 KBOS 211054Z 29018G26KT 10SM FEW065 FEW250 16/05 A2973 RMK AO2 PK WND 28028/1030 SLP065 T01560050 $
 
KCQX - Chatham, Massachusetts, USA
Distance from station: SE 102mi, 164km
Updated: Tue, 21-May-2019 6:52am EDT
Clear
Clear
 Wind from WNW
Wind: WNW 8 mph , 13 km/h, Gust: 17 mph , 28 km/h
Temperature: 57°F , 14°C
Dew Point: 45°F , 7°C
Humidity: 63%
Barometer: 29.73 inHg , 1006.8 hPa
Clouds: Clear
Visibility: 10 miles , 16 km
2019/05/21 10:52 KCQX 211052Z AUTO 30007G15KT 260V330 10SM CLR 14/07 A2973 RMK AO2 SLP068 T01440067
KMVY - Marthas Vineyard, Massachusetts, USA
Distance from station: SE 84mi, 135km
Updated: Tue, 21-May-2019 6:53am EDT
Clear
Clear
 Wind from WNW
Wind: WNW 14 mph , 22 km/h, Gust: 24 mph , 39 km/h
Temperature: 57°F , 14°C
Dew Point: 43°F , 6°C
Humidity: 59%
Barometer: 29.76 inHg , 1007.8 hPa
Clouds: Clear
Visibility: 10 miles , 16 km
2019/05/21 10:53 KMVY 211053Z 29012G21KT 10SM CLR 14/06 A2976 RMK AO2 SLP078 T01440056
 
KPVC - Provincetown, Massachusetts, USA
Distance from station: NNW 85mi, 136km
Updated: Tue, 21-May-2019 6:56am EDT
Clear
Clear
 Wind from W
Wind: W 12 mph , 19 km/h
Temperature: 54°F , 12°C
Dew Point: 46°F , 8°C
Humidity: 77%
Barometer: 29.73 inHg , 1006.8 hPa
Clouds: Clear
Visibility: 10 miles , 16 km
2019/05/21 10:56 KPVC 211056Z AUTO 27010KT 10SM CLR 12/08 A2973 RMK AO2 SLP068 T01220083 PNO $
KAQW - Savoy, Massachusetts, USA
Distance from station: NNW 66mi, 106km
Updated: Tue, 21-May-2019 6:52am EDT
Overcast
Overcast
 Wind from W
Wind: W 18 mph , 30 km/h, Gust: 29 mph , 46 km/h
Temperature: 48°F , 9°C
Wind Chill: 41°F , 5°C
Dew Point: 41°F , 5°C
Humidity: 76%
Barometer: 29.85 inHg , 1010.8 hPa
Clouds: Overcast
Visibility: 10 miles , 16 km
Cloud details: Partly cloudy 2500 ft
Overcast 3900 ft
2019/05/21 10:52 KAQW 211052Z AUTO 27016G25KT 10SM SCT025 OVC039 09/05 A2985 RMK AO2 PK WND 25030/1032 SLP107 T00940050
 
KIZG - Fryeburg, Maine, USA
Distance from station: NNE 133mi, 214km
Updated: Tue, 21-May-2019 6:54am EDT
Mostly cloudy
Mostly cloudy
 Wind from WNW
Wind: WNW 13 mph , 20 km/h, Gust: 23 mph , 37 km/h
Temperature: 54°F , 12°C
Dew Point: 39°F , 4°C
Humidity: 58%
Barometer: 29.71 inHg , 1006.1 hPa
Clouds: Mostly cloudy
Visibility: 10 miles , 16 km
Cloud details: Partly cloudy 4200 ft
Mostly cloudy 5000 ft
2019/05/21 10:54 KIZG 211054Z AUTO 29011G20KT 10SM SCT042 BKN050 12/04 A2971 RMK AO2 SLP060 T01220039
KMWN - Mt Washington, New Hampshire, USA
Distance from station: NNE 146mi, 234km
Updated: Tue, 21-May-2019 6:59am EDT
Light snow, Showers, Freezing, Fog, Overcast
Light snow, Showers, Freezing, Fog, Overcast
 Wind from WNW
Wind: WNW 78 mph , 126 km/h, Gust: 91 mph , 146 km/h
Temperature: 27°F , -3°C
Wind Chill: 4°F , -16°C
Dew Point: 27°F , -3°C
Humidity: 100%
Summary: Light snow, Showers, Freezing, Fog
Clouds: Overcast
Visibility: 1/16 mile , 0.1 km
Cloud details: Overcast 0 ft
2019/05/21 10:59 KMWN 211059Z 29068G79KT 1/16SM -SHSN FZFG VV000 M03/M03 RMK PLE00SHSNB00 VRY LGT ICG AND GICG
 
KBML - Berlin, New Hampshire, USA
Distance from station: NNE 160mi, 257km
Updated: Tue, 21-May-2019 7:09am EDT
Light rain, Mostly cloudy
Light rain, Mostly cloudy
 Wind from WNW
Wind: WNW 10 mph , 17 km/h, Gust: 18 mph , 30 km/h
Temperature: 46°F , 8°C
Wind Chill: 41°F , 5°C
Dew Point: 39°F , 4°C
Humidity: 76%
Barometer: 29.72 inHg , 1006.4 hPa
Summary: Light rain
Clouds: Mostly cloudy
Visibility: 10 miles , 16 km
Cloud details: Few Clouds 1800 ft
Mostly cloudy 3100 ft
Mostly cloudy 4000 ft
2019/05/21 11:09 KBML 211109Z AUTO 29009G16KT 10SM -RA FEW018 BKN031 BKN040 08/04 A2972 RMK AO2 P0000 T00830044